sensor_id;sensor_type;location;lat;lon;timestamp;P1;durP1;ratioP1;P2;durP2;ratioP2
417;SDS011;49;48.530;9.200;2023-02-16T00:00:21;29.67;;;17.60;;
417;SDS011;49;48.530;9.200;2023-02-16T00:02:57;28.40;;;15.03;;
417;SDS011;49;48.530;9.200;2023-02-16T00:05:32;38.30;;;18.17;;
417;SDS011;49;48.530;9.200;2023-02-16T00:08:03;29.60;;;15.50;;
417;SDS011;49;48.530;9.200;2023-02-16T00:10:36;32.70;;;18.20;;
417;SDS011;49;48.530;9.200;2023-02-16T00:13:29;33.70;;;18.17;;
417;SDS011;49;48.530;9.200;2023-02-16T00:16:14;32.50;;;18.03;;
417;SDS011;49;48.530;9.200;2023-02-16T00:18:50;34.00;;;18.77;;
417;SDS011;49;48.530;9.200;2023-02-16T00:21:19;31.00;;;16.60;;
417;SDS011;49;48.530;9.200;2023-02-16T00:23:51;32.70;;;17.27;;
417;SDS011;49;48.530;9.200;2023-02-16T00:26:27;29.30;;;16.97;;
417;SDS011;49;48.530;9.200;2023-02-16T00:31:39;28.87;;;15.90;;
417;SDS011;49;48.530;9.200;2023-02-16T00:34:19;37.87;;;16.70;;
417;SDS011;49;48.530;9.200;2023-02-16T00:37:03;29.97;;;16.07;;
417;SDS011;49;48.530;9.200;2023-02-16T00:39:34;34.70;;;18.53;;
417;SDS011;49;48.530;9.200;2023-02-16T00:42:03;37.73;;;16.67;;
417;SDS011;49;48.530;9.200;2023-02-16T00:44:33;30.43;;;17.87;;
417;SDS011;49;48.530;9.200;2023-02-16T00:47:07;32.47;;;17.90;;
417;SDS011;49;48.530;9.200;2023-02-16T00:49:47;30.73;;;17.17;;
417;SDS011;49;48.530;9.200;2023-02-16T00:52:32;26.50;;;16.63;;
417;SDS011;49;48.530;9.200;2023-02-16T00:55:02;31.20;;;16.00;;
417;SDS011;49;48.530;9.200;2023-02-16T00:57:34;27.20;;;15.90;;
417;SDS011;49;48.530;9.200;2023-02-16T01:00:10;25.67;;;14.27;;
417;SDS011;49;48.530;9.200;2023-02-16T01:02:45;32.60;;;14.63;;
417;SDS011;49;48.530;9.200;2023-02-16T01:05:22;35.70;;;16.30;;
417;SDS011;49;48.530;9.200;2023-02-16T01:07:58;29.10;;;15.97;;
417;SDS011;49;48.530;9.200;2023-02-16T01:10:46;28.70;;;15.70;;
417;SDS011;49;48.530;9.200;2023-02-16T01:13:38;33.13;;;16.60;;
417;SDS011;49;48.530;9.200;2023-02-16T01:16:21;22.30;;;13.63;;
417;SDS011;49;48.530;9.200;2023-02-16T01:18:59;23.27;;;15.07;;
417;SDS011;49;48.530;9.200;2023-02-16T01:21:29;24.70;;;15.50;;
417;SDS011;49;48.530;9.200;2023-02-16T01:23:59;30.97;;;17.90;;
417;SDS011;49;48.530;9.200;2023-02-16T01:26:29;27.20;;;15.10;;
417;SDS011;49;48.530;9.200;2023-02-16T01:29:01;25.40;;;15.47;;
417;SDS011;49;48.530;9.200;2023-02-16T01:31:32;36.93;;;14.00;;
417;SDS011;49;48.530;9.200;2023-02-16T01:34:02;30.07;;;17.53;;
417;SDS011;49;48.530;9.200;2023-02-16T01:36:35;27.03;;;15.30;;
417;SDS011;49;48.530;9.200;2023-02-16T01:39:06;25.13;;;14.17;;
417;SDS011;49;48.530;9.200;2023-02-16T01:41:51;20.13;;;13.70;;
417;SDS011;49;48.530;9.200;2023-02-16T01:44:40;21.17;;;13.80;;
417;SDS011;49;48.530;9.200;2023-02-16T01:47:18;26.60;;;14.70;;
417;SDS011;49;48.530;9.200;2023-02-16T01:49:55;28.93;;;15.67;;
417;SDS011;49;48.530;9.200;2023-02-16T01:52:27;31.00;;;17.30;;
417;SDS011;49;48.530;9.200;2023-02-16T01:55:09;32.70;;;17.20;;
417;SDS011;49;48.530;9.200;2023-02-16T01:57:44;24.23;;;15.20;;
417;SDS011;49;48.530;9.200;2023-02-16T02:00:16;27.70;;;15.83;;
417;SDS011;49;48.530;9.200;2023-02-16T02:02:48;23.53;;;15.10;;
417;SDS011;49;48.530;9.200;2023-02-16T02:05:23;32.67;;;16.20;;
417;SDS011;49;48.530;9.200;2023-02-16T02:08:06;29.87;;;16.93;;
417;SDS011;49;48.530;9.200;2023-02-16T02:10:45;29.33;;;14.93;;
417;SDS011;49;48.530;9.200;2023-02-16T02:13:23;27.30;;;16.03;;
417;SDS011;49;48.530;9.200;2023-02-16T02:16:00;35.50;;;15.20;;
417;SDS011;49;48.530;9.200;2023-02-16T02:18:31;22.73;;;14.33;;
417;SDS011;49;48.530;9.200;2023-02-16T02:21:07;22.33;;;13.50;;
417;SDS011;49;48.530;9.200;2023-02-16T02:24:42;27.73;;;13.13;;
417;SDS011;49;48.530;9.200;2023-02-16T02:27:34;22.83;;;13.93;;
417;SDS011;49;48.530;9.200;2023-02-16T02:33:29;25.50;;;15.13;;
417;SDS011;49;48.530;9.200;2023-02-16T02:36:14;28.47;;;16.10;;
417;SDS011;49;48.530;9.200;2023-02-16T02:38:53;36.87;;;14.47;;
417;SDS011;49;48.530;9.200;2023-02-16T02:41:30;28.13;;;15.27;;
417;SDS011;49;48.530;9.200;2023-02-16T02:44:20;22.87;;;13.73;;
417;SDS011;49;48.530;9.200;2023-02-16T02:46:53;22.43;;;15.00;;
417;SDS011;49;48.530;9.200;2023-02-16T02:49:28;24.00;;;13.50;;
417;SDS011;49;48.530;9.200;2023-02-16T02:51:58;26.93;;;14.10;;
417;SDS011;49;48.530;9.200;2023-02-16T02:54:27;22.77;;;12.30;;
417;SDS011;49;48.530;9.200;2023-02-16T02:57:17;21.47;;;13.00;;
417;SDS011;49;48.530;9.200;2023-02-16T03:00:07;25.90;;;15.17;;
417;SDS011;49;48.530;9.200;2023-02-16T03:02:57;18.53;;;12.83;;
417;SDS011;49;48.530;9.200;2023-02-16T03:05:35;32.23;;;14.73;;
417;SDS011;49;48.530;9.200;2023-02-16T03:08:09;30.47;;;16.90;;
417;SDS011;49;48.530;9.200;2023-02-16T03:10:40;29.07;;;14.70;;
417;SDS011;49;48.530;9.200;2023-02-16T03:13:31;29.10;;;13.03;;
417;SDS011;49;48.530;9.200;2023-02-16T03:16:03;20.50;;;11.83;;
417;SDS011;49;48.530;9.200;2023-02-16T03:18:34;26.20;;;13.90;;
417;SDS011;49;48.530;9.200;2023-02-16T03:21:23;24.53;;;14.87;;
417;SDS011;49;48.530;9.200;2023-02-16T03:24:12;27.60;;;13.90;;
417;SDS011;49;48.530;9.200;2023-02-16T03:27:03;27.43;;;15.67;;
417;SDS011;49;48.530;9.200;2023-02-16T03:29:49;22.77;;;13.83;;
417;SDS011;49;48.530;9.200;2023-02-16T03:32:18;21.40;;;14.23;;
417;SDS011;49;48.530;9.200;2023-02-16T03:34:48;27.13;;;14.80;;
417;SDS011;49;48.530;9.200;2023-02-16T03:37:18;30.70;;;13.70;;
417;SDS011;49;48.530;9.200;2023-02-16T03:39:46;27.53;;;14.30;;
417;SDS011;49;48.530;9.200;2023-02-16T03:42:31;31.10;;;18.43;;
417;SDS011;49;48.530;9.200;2023-02-16T03:44:59;25.90;;;15.10;;
417;SDS011;49;48.530;9.200;2023-02-16T03:47:26;23.00;;;14.33;;
417;SDS011;49;48.530;9.200;2023-02-16T03:49:56;22.33;;;14.60;;
417;SDS011;49;48.530;9.200;2023-02-16T03:52:26;26.60;;;15.97;;
417;SDS011;49;48.530;9.200;2023-02-16T03:54:53;27.47;;;15.27;;
417;SDS011;49;48.530;9.200;2023-02-16T03:57:27;31.93;;;16.43;;
417;SDS011;49;48.530;9.200;2023-02-16T03:59:55;24.47;;;14.27;;
417;SDS011;49;48.530;9.200;2023-02-16T04:02:25;17.27;;;11.70;;
417;SDS011;49;48.530;9.200;2023-02-16T04:04:54;23.00;;;11.90;;
417;SDS011;49;48.530;9.200;2023-02-16T04:07:23;29.60;;;16.33;;
417;SDS011;49;48.530;9.200;2023-02-16T04:09:54;20.33;;;13.87;;
417;SDS011;49;48.530;9.200;2023-02-16T04:12:21;28.40;;;15.30;;
417;SDS011;49;48.530;9.200;2023-02-16T04:15:04;24.53;;;13.43;;
417;SDS011;49;48.530;9.200;2023-02-16T04:17:36;28.27;;;15.90;;
417;SDS011;49;48.530;9.200;2023-02-16T04:20:05;30.87;;;14.10;;
417;SDS011;49;48.530;9.200;2023-02-16T04:25:42;30.77;;;15.23;;
417;SDS011;49;48.530;9.200;2023-02-16T04:28:11;25.57;;;14.93;;
417;SDS011;49;48.530;9.200;2023-02-16T04:30:43;21.87;;;14.20;;
417;SDS011;49;48.530;9.200;2023-02-16T04:33:11;25.57;;;14.60;;
417;SDS011;49;48.530;9.200;2023-02-16T04:35:41;21.37;;;13.27;;
417;SDS011;49;48.530;9.200;2023-02-16T04:38:08;27.47;;;14.70;;
417;SDS011;49;48.530;9.200;2023-02-16T04:40:35;22.40;;;14.17;;
417;SDS011;49;48.530;9.200;2023-02-16T04:43:09;20.13;;;13.50;;
417;SDS011;49;48.530;9.200;2023-02-16T04:45:36;23.87;;;14.10;;
417;SDS011;49;48.530;9.200;2023-02-16T04:48:06;22.90;;;14.40;;
417;SDS011;49;48.530;9.200;2023-02-16T04:50:34;24.80;;;14.60;;
417;SDS011;49;48.530;9.200;2023-02-16T04:53:03;25.90;;;13.60;;
417;SDS011;49;48.530;9.200;2023-02-16T04:55:31;26.47;;;14.57;;
417;SDS011;49;48.530;9.200;2023-02-16T04:57:59;25.87;;;15.27;;
417;SDS011;49;48.530;9.200;2023-02-16T05:05:42;37.33;;;16.87;;
417;SDS011;49;48.530;9.200;2023-02-16T05:08:09;27.47;;;14.40;;
417;SDS011;49;48.530;9.200;2023-02-16T05:10:37;26.53;;;14.23;;
417;SDS011;49;48.530;9.200;2023-02-16T05:13:04;24.23;;;14.53;;
417;SDS011;49;48.530;9.200;2023-02-16T05:15:49;22.90;;;13.90;;
417;SDS011;49;48.530;9.200;2023-02-16T05:18:16;26.47;;;15.60;;
417;SDS011;49;48.530;9.200;2023-02-16T05:20:46;23.97;;;13.57;;
417;SDS011;49;48.530;9.200;2023-02-16T05:23:33;21.80;;;14.17;;
417;SDS011;49;48.530;9.200;2023-02-16T05:26:04;40.50;;;15.43;;
417;SDS011;49;48.530;9.200;2023-02-16T05:28:31;24.90;;;14.80;;
417;SDS011;49;48.530;9.200;2023-02-16T05:31:01;24.17;;;12.70;;
417;SDS011;49;48.530;9.200;2023-02-16T05:33:29;21.27;;;11.53;;
417;SDS011;49;48.530;9.200;2023-02-16T05:35:58;21.00;;;12.53;;
417;SDS011;49;48.530;9.200;2023-02-16T05:38:26;21.60;;;12.20;;
417;SDS011;49;48.530;9.200;2023-02-16T05:40:53;21.20;;;12.93;;
417;SDS011;49;48.530;9.200;2023-02-16T05:43:20;18.93;;;12.43;;
417;SDS011;49;48.530;9.200;2023-02-16T05:45:48;22.13;;;12.73;;
417;SDS011;49;48.530;9.200;2023-02-16T05:48:15;27.93;;;15.47;;
417;SDS011;49;48.530;9.200;2023-02-16T05:50:46;28.00;;;14.13;;
417;SDS011;49;48.530;9.200;2023-02-16T05:53:15;23.67;;;13.00;;
417;SDS011;49;48.530;9.200;2023-02-16T05:55:42;22.50;;;14.07;;
417;SDS011;49;48.530;9.200;2023-02-16T05:58:10;29.30;;;14.80;;
417;SDS011;49;48.530;9.200;2023-02-16T06:00:40;22.70;;;12.13;;
417;SDS011;49;48.530;9.200;2023-02-16T06:03:10;21.43;;;12.80;;
417;SDS011;49;48.530;9.200;2023-02-16T06:05:37;22.80;;;13.43;;
417;SDS011;49;48.530;9.200;2023-02-16T06:08:08;30.43;;;13.60;;
417;SDS011;49;48.530;9.200;2023-02-16T06:10:37;22.40;;;14.07;;
417;SDS011;49;48.530;9.200;2023-02-16T06:13:04;26.83;;;12.97;;
417;SDS011;49;48.530;9.200;2023-02-16T06:15:32;20.47;;;13.07;;
417;SDS011;49;48.530;9.200;2023-02-16T06:17:59;23.77;;;13.83;;
417;SDS011;49;48.530;9.200;2023-02-16T06:20:27;25.57;;;14.27;;
417;SDS011;49;48.530;9.200;2023-02-16T06:22:55;20.03;;;12.50;;
417;SDS011;49;48.530;9.200;2023-02-16T06:25:29;22.40;;;11.77;;
417;SDS011;49;48.530;9.200;2023-02-16T06:27:59;24.53;;;15.17;;
417;SDS011;49;48.530;9.200;2023-02-16T06:30:26;21.07;;;12.50;;
417;SDS011;49;48.530;9.200;2023-02-16T06:32:54;20.87;;;11.57;;
417;SDS011;49;48.530;9.200;2023-02-16T06:35:22;23.03;;;13.30;;
417;SDS011;49;48.530;9.200;2023-02-16T06:37:49;19.27;;;12.17;;
417;SDS011;49;48.530;9.200;2023-02-16T06:40:17;24.13;;;13.80;;
417;SDS011;49;48.530;9.200;2023-02-16T06:42:44;22.60;;;14.20;;
417;SDS011;49;48.530;9.200;2023-02-16T06:45:14;23.93;;;15.30;;
417;SDS011;49;48.530;9.200;2023-02-16T06:47:44;25.57;;;12.83;;
417;SDS011;49;48.530;9.200;2023-02-16T06:50:12;23.50;;;13.60;;
417;SDS011;49;48.530;9.200;2023-02-16T06:52:39;22.03;;;13.27;;
417;SDS011;49;48.530;9.200;2023-02-16T06:55:07;22.77;;;12.77;;
417;SDS011;49;48.530;9.200;2023-02-16T06:57:35;20.67;;;12.47;;
417;SDS011;49;48.530;9.200;2023-02-16T07:00:02;23.97;;;14.77;;
417;SDS011;49;48.530;9.200;2023-02-16T07:02:32;27.40;;;14.73;;
417;SDS011;49;48.530;9.200;2023-02-16T07:05:01;28.17;;;14.40;;
417;SDS011;49;48.530;9.200;2023-02-16T07:07:30;25.33;;;13.40;;
417;SDS011;49;48.530;9.200;2023-02-16T07:09:57;22.40;;;13.73;;
417;SDS011;49;48.530;9.200;2023-02-16T07:12:24;24.77;;;14.17;;
417;SDS011;49;48.530;9.200;2023-02-16T07:14:51;25.10;;;13.60;;
417;SDS011;49;48.530;9.200;2023-02-16T07:17:19;24.03;;;14.00;;
417;SDS011;49;48.530;9.200;2023-02-16T07:19:56;26.30;;;13.57;;
417;SDS011;49;48.530;9.200;2023-02-16T07:22:26;31.30;;;15.90;;
417;SDS011;49;48.530;9.200;2023-02-16T07:25:11;23.10;;;13.03;;
417;SDS011;49;48.530;9.200;2023-02-16T07:28:00;24.70;;;14.63;;
417;SDS011;49;48.530;9.200;2023-02-16T07:33:46;23.17;;;13.73;;
417;SDS011;49;48.530;9.200;2023-02-16T08:12:56;28.57;;;14.57;;
417;SDS011;49;48.530;9.200;2023-02-16T08:15:43;30.90;;;15.47;;
417;SDS011;49;48.530;9.200;2023-02-16T08:18:12;29.53;;;15.13;;
417;SDS011;49;48.530;9.200;2023-02-16T08:20:53;21.63;;;13.70;;
417;SDS011;49;48.530;9.200;2023-02-16T08:23:38;29.37;;;14.20;;
417;SDS011;49;48.530;9.200;2023-02-16T08:26:23;27.33;;;15.30;;
417;SDS011;49;48.530;9.200;2023-02-16T08:31:45;24.33;;;14.50;;
417;SDS011;49;48.530;9.200;2023-02-16T08:34:21;27.33;;;13.83;;
417;SDS011;49;48.530;9.200;2023-02-16T08:36:53;25.63;;;14.80;;
417;SDS011;49;48.530;9.200;2023-02-16T08:39:28;21.60;;;13.30;;
417;SDS011;49;48.530;9.200;2023-02-16T08:42:12;25.63;;;14.60;;
417;SDS011;49;48.530;9.200;2023-02-16T08:44:51;24.03;;;14.20;;
417;SDS011;49;48.530;9.200;2023-02-16T08:47:23;30.80;;;15.00;;
417;SDS011;49;48.530;9.200;2023-02-16T08:49:56;23.43;;;14.63;;
417;SDS011;49;48.530;9.200;2023-02-16T08:52:26;24.67;;;14.70;;
417;SDS011;49;48.530;9.200;2023-02-16T08:55:08;29.00;;;15.43;;
417;SDS011;49;48.530;9.200;2023-02-16T08:57:52;21.87;;;13.20;;
417;SDS011;49;48.530;9.200;2023-02-16T09:00:37;22.77;;;13.73;;
417;SDS011;49;48.530;9.200;2023-02-16T09:03:09;24.70;;;12.90;;
417;SDS011;49;48.530;9.200;2023-02-16T09:05:43;22.90;;;13.57;;
417;SDS011;49;48.530;9.200;2023-02-16T09:08:32;25.17;;;13.83;;
417;SDS011;49;48.530;9.200;2023-02-16T09:11:16;19.33;;;12.43;;
417;SDS011;49;48.530;9.200;2023-02-16T09:13:55;23.37;;;13.40;;
417;SDS011;49;48.530;9.200;2023-02-16T09:24:29;32.83;;;12.27;;
417;SDS011;49;48.530;9.200;2023-02-16T09:27:00;25.43;;;13.57;;
417;SDS011;49;48.530;9.200;2023-02-16T09:29:41;23.30;;;13.00;;
417;SDS011;49;48.530;9.200;2023-02-16T09:32:12;18.43;;;11.70;;
417;SDS011;49;48.530;9.200;2023-02-16T09:34:46;27.13;;;12.77;;
417;SDS011;49;48.530;9.200;2023-02-16T09:37:25;22.93;;;13.27;;
417;SDS011;49;48.530;9.200;2023-02-16T09:40:12;18.73;;;12.20;;
417;SDS011;49;48.530;9.200;2023-02-16T09:42:46;23.77;;;12.37;;
417;SDS011;49;48.530;9.200;2023-02-16T09:47:55;28.10;;;16.77;;
417;SDS011;49;48.530;9.200;2023-02-16T09:50:37;26.80;;;11.67;;
417;SDS011;49;48.530;9.200;2023-02-16T09:53:05;20.17;;;12.40;;
417;SDS011;49;48.530;9.200;2023-02-16T09:55:51;20.87;;;11.83;;
417;SDS011;49;48.530;9.200;2023-02-16T09:58:36;21.53;;;11.93;;
417;SDS011;49;48.530;9.200;2023-02-16T10:01:18;21.13;;;12.20;;
417;SDS011;49;48.530;9.200;2023-02-16T10:03:59;20.67;;;12.30;;
417;SDS011;49;48.530;9.200;2023-02-16T10:06:41;19.37;;;12.47;;
417;SDS011;49;48.530;9.200;2023-02-16T10:09:20;21.90;;;12.50;;
417;SDS011;49;48.530;9.200;2023-02-16T10:11:54;23.60;;;12.80;;
417;SDS011;49;48.530;9.200;2023-02-16T10:14:30;20.90;;;11.70;;
417;SDS011;49;48.530;9.200;2023-02-16T10:17:15;24.63;;;11.90;;
417;SDS011;49;48.530;9.200;2023-02-16T10:22:29;25.60;;;15.80;;
417;SDS011;49;48.530;9.200;2023-02-16T10:25:07;20.70;;;12.67;;
417;SDS011;49;48.530;9.200;2023-02-16T10:27:40;26.63;;;12.93;;
417;SDS011;49;48.530;9.200;2023-02-16T10:30:12;20.87;;;11.57;;
417;SDS011;49;48.530;9.200;2023-02-16T10:32:44;26.90;;;11.50;;
417;SDS011;49;48.530;9.200;2023-02-16T10:35:22;19.80;;;11.80;;
417;SDS011;49;48.530;9.200;2023-02-16T10:38:02;19.20;;;11.00;;
417;SDS011;49;48.530;9.200;2023-02-16T10:40:42;23.70;;;13.07;;
417;SDS011;49;48.530;9.200;2023-02-16T10:43:29;20.80;;;11.67;;
417;SDS011;49;48.530;9.200;2023-02-16T10:46:07;22.87;;;11.83;;
417;SDS011;49;48.530;9.200;2023-02-16T10:48:39;30.10;;;14.50;;
417;SDS011;49;48.530;9.200;2023-02-16T10:51:11;25.27;;;13.33;;
417;SDS011;49;48.530;9.200;2023-02-16T10:53:44;22.90;;;12.60;;
417;SDS011;49;48.530;9.200;2023-02-16T10:56:26;24.10;;;11.20;;
417;SDS011;49;48.530;9.200;2023-02-16T10:59:22;20.13;;;10.90;;
417;SDS011;49;48.530;9.200;2023-02-16T11:01:54;24.67;;;9.87;;
417;SDS011;49;48.530;9.200;2023-02-16T11:04:33;15.50;;;9.77;;
417;SDS011;49;48.530;9.200;2023-02-16T11:07:05;18.73;;;9.60;;
417;SDS011;49;48.530;9.200;2023-02-16T11:09:45;16.53;;;10.07;;
417;SDS011;49;48.530;9.200;2023-02-16T11:12:39;18.30;;;9.20;;
417;SDS011;49;48.530;9.200;2023-02-16T11:15:22;20.33;;;9.70;;
417;SDS011;49;48.530;9.200;2023-02-16T11:17:52;23.17;;;9.57;;
417;SDS011;49;48.530;9.200;2023-02-16T11:20:26;11.47;;;8.30;;
417;SDS011;49;48.530;9.200;2023-02-16T11:23:12;17.43;;;9.23;;
417;SDS011;49;48.530;9.200;2023-02-16T11:25:54;21.20;;;8.80;;
417;SDS011;49;48.530;9.200;2023-02-16T11:28:26;10.07;;;7.13;;
417;SDS011;49;48.530;9.200;2023-02-16T11:31:14;10.63;;;6.77;;
417;SDS011;49;48.530;9.200;2023-02-16T11:33:53;14.53;;;7.10;;
417;SDS011;49;48.530;9.200;2023-02-16T11:36:28;14.70;;;7.60;;
417;SDS011;49;48.530;9.200;2023-02-16T11:39:05;10.97;;;7.10;;
417;SDS011;49;48.530;9.200;2023-02-16T11:41:44;14.53;;;7.70;;
417;SDS011;49;48.530;9.200;2023-02-16T11:44:23;12.23;;;6.90;;
417;SDS011;49;48.530;9.200;2023-02-16T11:47:26;8.87;;;6.00;;
417;SDS011;49;48.530;9.200;2023-02-16T11:50:21;18.17;;;5.97;;
417;SDS011;49;48.530;9.200;2023-02-16T11:52:54;12.60;;;6.00;;
417;SDS011;49;48.530;9.200;2023-02-16T11:55:26;9.97;;;5.97;;
417;SDS011;49;48.530;9.200;2023-02-16T11:58:12;10.67;;;6.60;;
417;SDS011;49;48.530;9.200;2023-02-16T12:00:45;13.60;;;5.80;;
417;SDS011;49;48.530;9.200;2023-02-16T12:03:38;10.60;;;5.33;;
417;SDS011;49;48.530;9.200;2023-02-16T12:06:44;14.53;;;5.07;;
417;SDS011;49;48.530;9.200;2023-02-16T12:09:24;10.10;;;5.60;;
417;SDS011;49;48.530;9.200;2023-02-16T12:12:04;10.83;;;5.57;;
417;SDS011;49;48.530;9.200;2023-02-16T12:14:43;6.90;;;4.80;;
417;SDS011;49;48.530;9.200;2023-02-16T12:17:32;6.57;;;4.73;;
417;SDS011;49;48.530;9.200;2023-02-16T12:20:21;8.30;;;4.80;;
417;SDS011;49;48.530;9.200;2023-02-16T12:23:16;7.10;;;4.47;;
417;SDS011;49;48.530;9.200;2023-02-16T12:26:18;6.03;;;4.60;;
417;SDS011;49;48.530;9.200;2023-02-16T12:29:18;5.43;;;4.10;;
417;SDS011;49;48.530;9.200;2023-02-16T12:32:48;5.60;;;4.60;;
417;SDS011;49;48.530;9.200;2023-02-16T12:45:16;7.37;;;4.40;;
417;SDS011;49;48.530;9.200;2023-02-16T12:48:04;8.10;;;4.23;;
417;SDS011;49;48.530;9.200;2023-02-16T12:50:47;7.80;;;4.40;;
417;SDS011;49;48.530;9.200;2023-02-16T12:53:20;14.43;;;4.30;;
417;SDS011;49;48.530;9.200;2023-02-16T12:55:59;10.23;;;4.47;;
417;SDS011;49;48.530;9.200;2023-02-16T13:01:41;6.77;;;4.03;;
417;SDS011;49;48.530;9.200;2023-02-16T13:04:32;6.50;;;4.50;;
417;SDS011;49;48.530;9.200;2023-02-16T13:12:15;14.83;;;5.30;;
417;SDS011;49;48.530;9.200;2023-02-16T13:14:55;12.40;;;3.80;;
417;SDS011;49;48.530;9.200;2023-02-16T13:21:20;10.60;;;4.77;;
417;SDS011;49;48.530;9.200;2023-02-16T13:24:35;12.67;;;5.33;;
417;SDS011;49;48.530;9.200;2023-02-16T13:27:28;12.13;;;5.10;;
417;SDS011;49;48.530;9.200;2023-02-16T13:33:42;6.10;;;4.03;;
417;SDS011;49;48.530;9.200;2023-02-16T13:36:41;12.73;;;5.03;;
417;SDS011;49;48.530;9.200;2023-02-16T13:45:53;9.60;;;3.80;;
417;SDS011;49;48.530;9.200;2023-02-16T13:48:36;6.20;;;4.33;;
417;SDS011;49;48.530;9.200;2023-02-16T13:51:22;7.13;;;4.27;;
417;SDS011;49;48.530;9.200;2023-02-16T13:56:58;7.97;;;4.40;;
417;SDS011;49;48.530;9.200;2023-02-16T14:02:52;7.97;;;4.13;;
417;SDS011;49;48.530;9.200;2023-02-16T14:05:37;14.83;;;3.87;;
417;SDS011;49;48.530;9.200;2023-02-16T14:08:30;6.20;;;4.07;;
417;SDS011;49;48.530;9.200;2023-02-16T14:11:12;13.83;;;4.50;;
417;SDS011;49;48.530;9.200;2023-02-16T14:17:34;8.53;;;3.97;;
417;SDS011;49;48.530;9.200;2023-02-16T14:20:05;9.13;;;4.93;;
417;SDS011;49;48.530;9.200;2023-02-16T14:22:54;6.27;;;3.67;;
417;SDS011;49;48.530;9.200;2023-02-16T14:25:45;11.33;;;3.77;;
417;SDS011;49;48.530;9.200;2023-02-16T14:31:25;10.17;;;5.37;;
417;SDS011;49;48.530;9.200;2023-02-16T14:34:14;11.23;;;4.63;;
417;SDS011;49;48.530;9.200;2023-02-16T14:40:08;9.80;;;4.00;;
417;SDS011;49;48.530;9.200;2023-02-16T14:43:00;6.43;;;3.70;;
417;SDS011;49;48.530;9.200;2023-02-16T14:55:46;15.97;;;4.27;;
417;SDS011;49;48.530;9.200;2023-02-16T14:58:54;9.90;;;4.40;;
417;SDS011;49;48.530;9.200;2023-02-16T15:01:39;6.87;;;4.63;;
417;SDS011;49;48.530;9.200;2023-02-16T15:04:25;11.73;;;4.20;;
417;SDS011;49;48.530;9.200;2023-02-16T15:07:09;8.83;;;4.20;;
417;SDS011;49;48.530;9.200;2023-02-16T15:09:44;4.63;;;3.80;;
417;SDS011;49;48.530;9.200;2023-02-16T15:15:30;9.63;;;5.27;;
417;SDS011;49;48.530;9.200;2023-02-16T15:18:27;7.57;;;4.77;;
417;SDS011;49;48.530;9.200;2023-02-16T15:21:17;13.50;;;6.83;;
417;SDS011;49;48.530;9.200;2023-02-16T15:23:50;15.40;;;4.33;;
417;SDS011;49;48.530;9.200;2023-02-16T15:26:22;7.37;;;4.87;;
417;SDS011;49;48.530;9.200;2023-02-16T15:32:19;8.10;;;5.90;;
417;SDS011;49;48.530;9.200;2023-02-16T15:35:08;10.37;;;5.67;;
417;SDS011;49;48.530;9.200;2023-02-16T15:38:20;10.10;;;5.50;;
417;SDS011;49;48.530;9.200;2023-02-16T15:41:05;8.80;;;5.30;;
417;SDS011;49;48.530;9.200;2023-02-16T15:46:28;9.87;;;5.17;;
417;SDS011;49;48.530;9.200;2023-02-16T15:52:04;11.73;;;5.10;;
417;SDS011;49;48.530;9.200;2023-02-16T15:54:45;9.30;;;5.20;;
417;SDS011;49;48.530;9.200;2023-02-16T15:57:18;15.43;;;5.50;;
417;SDS011;49;48.530;9.200;2023-02-16T16:00:11;13.50;;;5.50;;
417;SDS011;49;48.530;9.200;2023-02-16T16:02:59;12.60;;;6.23;;
417;SDS011;49;48.530;9.200;2023-02-16T16:05:36;8.50;;;4.97;;
417;SDS011;49;48.530;9.200;2023-02-16T16:11:16;12.60;;;5.07;;
417;SDS011;49;48.530;9.200;2023-02-16T16:13:47;8.17;;;4.80;;
417;SDS011;49;48.530;9.200;2023-02-16T16:16:29;13.40;;;5.20;;
417;SDS011;49;48.530;9.200;2023-02-16T16:19:13;13.83;;;5.23;;
417;SDS011;49;48.530;9.200;2023-02-16T16:22:26;8.50;;;4.63;;
417;SDS011;49;48.530;9.200;2023-02-16T16:25:00;14.93;;;5.80;;
417;SDS011;49;48.530;9.200;2023-02-16T16:28:03;13.57;;;8.20;;
417;SDS011;49;48.530;9.200;2023-02-16T16:30:37;15.70;;;7.93;;
417;SDS011;49;48.530;9.200;2023-02-16T16:33:11;19.07;;;6.93;;
417;SDS011;49;48.530;9.200;2023-02-16T16:35:53;9.23;;;5.57;;
417;SDS011;49;48.530;9.200;2023-02-16T16:42:20;11.20;;;5.77;;
417;SDS011;49;48.530;9.200;2023-02-16T16:45:03;21.03;;;6.00;;
417;SDS011;49;48.530;9.200;2023-02-16T16:48:32;9.97;;;5.53;;
417;SDS011;49;48.530;9.200;2023-02-16T16:51:15;11.80;;;6.80;;
417;SDS011;49;48.530;9.200;2023-02-16T16:53:53;19.07;;;8.83;;
417;SDS011;49;48.530;9.200;2023-02-16T16:56:25;21.60;;;9.50;;
417;SDS011;49;48.530;9.200;2023-02-16T16:58:55;19.20;;;8.93;;
417;SDS011;49;48.530;9.200;2023-02-16T17:01:28;16.33;;;7.27;;
417;SDS011;49;48.530;9.200;2023-02-16T17:03:57;16.67;;;6.50;;
417;SDS011;49;48.530;9.200;2023-02-16T17:06:29;15.43;;;5.70;;
417;SDS011;49;48.530;9.200;2023-02-16T17:09:05;12.40;;;6.17;;
417;SDS011;49;48.530;9.200;2023-02-16T17:11:52;17.13;;;5.63;;
417;SDS011;49;48.530;9.200;2023-02-16T17:14:25;15.70;;;5.63;;
417;SDS011;49;48.530;9.200;2023-02-16T17:16:53;8.67;;;5.20;;
417;SDS011;49;48.530;9.200;2023-02-16T17:19:39;14.83;;;5.50;;
417;SDS011;49;48.530;9.200;2023-02-16T17:22:10;17.37;;;6.10;;
417;SDS011;49;48.530;9.200;2023-02-16T17:24:44;19.10;;;5.90;;
417;SDS011;49;48.530;9.200;2023-02-16T17:27:13;12.20;;;6.03;;
417;SDS011;49;48.530;9.200;2023-02-16T17:29:45;12.93;;;5.83;;
417;SDS011;49;48.530;9.200;2023-02-16T17:32:13;18.87;;;5.97;;
417;SDS011;49;48.530;9.200;2023-02-16T17:34:41;16.00;;;6.47;;
417;SDS011;49;48.530;9.200;2023-02-16T17:37:09;17.40;;;7.27;;
417;SDS011;49;48.530;9.200;2023-02-16T17:39:39;15.90;;;7.23;;
417;SDS011;49;48.530;9.200;2023-02-16T17:42:22;13.70;;;6.10;;
417;SDS011;49;48.530;9.200;2023-02-16T17:45:05;38.73;;;7.73;;
417;SDS011;49;48.530;9.200;2023-02-16T17:47:33;15.63;;;7.20;;
417;SDS011;49;48.530;9.200;2023-02-16T17:50:13;10.40;;;6.20;;
417;SDS011;49;48.530;9.200;2023-02-16T17:52:46;17.90;;;7.37;;
417;SDS011;49;48.530;9.200;2023-02-16T17:55:21;17.37;;;6.70;;
417;SDS011;49;48.530;9.200;2023-02-16T17:58:03;14.50;;;7.50;;
417;SDS011;49;48.530;9.200;2023-02-16T18:00:33;17.83;;;6.97;;
417;SDS011;49;48.530;9.200;2023-02-16T18:03:02;18.70;;;7.13;;
417;SDS011;49;48.530;9.200;2023-02-16T18:05:33;13.60;;;8.17;;
417;SDS011;49;48.530;9.200;2023-02-16T18:08:00;24.60;;;8.00;;
417;SDS011;49;48.530;9.200;2023-02-16T18:10:31;14.10;;;7.93;;
417;SDS011;49;48.530;9.200;2023-02-16T18:13:05;15.50;;;9.07;;
417;SDS011;49;48.530;9.200;2023-02-16T18:15:40;18.40;;;8.40;;
417;SDS011;49;48.530;9.200;2023-02-16T18:18:12;22.10;;;8.70;;
417;SDS011;49;48.530;9.200;2023-02-16T18:20:42;20.33;;;7.70;;
417;SDS011;49;48.530;9.200;2023-02-16T18:23:10;25.10;;;9.40;;
417;SDS011;49;48.530;9.200;2023-02-16T18:25:39;19.20;;;9.57;;
417;SDS011;49;48.530;9.200;2023-02-16T18:28:08;21.47;;;10.60;;
417;SDS011;49;48.530;9.200;2023-02-16T18:30:44;17.57;;;9.43;;
417;SDS011;49;48.530;9.200;2023-02-16T18:33:11;22.00;;;8.70;;
417;SDS011;49;48.530;9.200;2023-02-16T18:35:39;17.30;;;9.13;;
417;SDS011;49;48.530;9.200;2023-02-16T18:38:06;14.30;;;8.00;;
417;SDS011;49;48.530;9.200;2023-02-16T18:40:36;19.03;;;9.53;;
417;SDS011;49;48.530;9.200;2023-02-16T18:43:04;16.87;;;9.00;;
417;SDS011;49;48.530;9.200;2023-02-16T18:45:31;16.50;;;8.80;;
417;SDS011;49;48.530;9.200;2023-02-16T18:48:00;23.10;;;10.27;;
417;SDS011;49;48.530;9.200;2023-02-16T18:50:29;20.73;;;10.80;;
417;SDS011;49;48.530;9.200;2023-02-16T18:52:59;21.70;;;9.93;;
417;SDS011;49;48.530;9.200;2023-02-16T18:55:26;23.57;;;10.37;;
417;SDS011;49;48.530;9.200;2023-02-16T18:57:57;16.10;;;9.00;;
417;SDS011;49;48.530;9.200;2023-02-16T19:00:24;18.93;;;11.10;;
417;SDS011;49;48.530;9.200;2023-02-16T19:02:52;21.73;;;9.77;;
417;SDS011;49;48.530;9.200;2023-02-16T19:05:22;18.00;;;10.47;;